Time;durP1;ratioP1;P1;durP2;ratioP2;P2;SDS_P1;SDS_P2;PMS_P1;PMS_P2;Temp;Humidity;BMP_temperature;BMP_pressure;BME280_temperature;BME280_humidity;BME280_pressure;Samples;Min_cycle;Max_cycle;Signal;HPM_P1;HPM_P2
2023/01/23 00:01:18;;;;;;;42.75;17.42;;;;;;;-0.40;100.00;103398.50;5056454;28;20049;-87
2023/01/23 00:03:44;;;;;;;43.67;17.83;;;;;;;-0.40;100.00;103393.22;5062951;28;20009;-86
2023/01/23 00:06:12;;;;;;;43.90;18.60;;;;;;;-0.43;100.00;103377.66;5056485;28;20017;-86
2023/01/23 00:08:38;;;;;;;41.22;17.30;;;;;;;-0.37;100.00;103382.47;5066538;28;20028;-86
2023/01/23 00:11:05;;;;;;;44.88;17.30;;;;;;;-0.56;100.00;103352.31;5074617;28;20044;-85
2023/01/23 00:13:31;;;;;;;39.63;17.73;;;;;;;-0.43;100.00;103372.41;5072790;28;20499;-86
2023/01/23 00:15:56;;;;;;;44.83;18.30;;;;;;;-0.49;100.00;103369.28;5061327;28;20283;-87
2023/01/23 00:18:22;;;;;;;39.83;16.40;;;;;;;-0.41;100.00;103381.84;5060725;28;20021;-86
2023/01/23 00:20:47;;;;;;;46.77;18.70;;;;;;;-0.41;100.00;103375.75;5053723;28;20040;-86
2023/01/23 00:23:13;;;;;;;45.20;19.50;;;;;;;-0.47;100.00;103363.91;5054111;28;20064;-87
2023/01/23 00:25:38;;;;;;;50.15;18.45;;;;;;;-0.44;100.00;103378.63;5044390;28;20034;-87
2023/01/23 00:28:04;;;;;;;49.00;17.47;;;;;;;-0.41;100.00;103388.91;5060188;28;20024;-86
2023/01/23 00:30:29;;;;;;;42.40;18.63;;;;;;;-0.48;100.00;103376.22;5053532;28;20021;-86
2023/01/23 00:32:54;;;;;;;44.07;18.27;;;;;;;-0.45;100.00;103390.94;5053263;28;20037;-86
2023/01/23 00:35:20;;;;;;;41.57;17.13;;;;;;;-0.40;100.00;103395.88;5052094;28;20480;-86
2023/01/23 00:37:45;;;;;;;42.87;17.90;;;;;;;-0.39;100.00;103397.56;5052199;28;20416;-86
2023/01/23 00:40:12;;;;;;;47.80;18.20;;;;;;;-0.45;100.00;103393.56;5052676;28;20119;-86
2023/01/23 00:42:37;;;;;;;46.63;17.37;;;;;;;-0.40;100.00;103398.50;5053811;28;20044;-86
2023/01/23 00:45:03;;;;;;;46.33;18.37;;;;;;;-0.47;100.00;103404.25;5052739;28;20425;-86
2023/01/23 00:47:28;;;;;;;48.83;17.90;;;;;;;-0.43;100.00;103410.09;5055754;28;20052;-86
2023/01/23 00:49:56;;;;;;;46.23;18.37;;;;;;;-0.39;100.00;103414.19;5060135;28;20056;-87
2023/01/23 00:52:21;;;;;;;45.20;17.55;;;;;;;-0.37;100.00;103412.25;5058345;28;20476;-87
2023/01/23 00:54:47;;;;;;;44.87;17.23;;;;;;;-0.36;100.00;103413.09;5059898;28;20070;-87
2023/01/23 00:57:12;;;;;;;43.80;17.57;;;;;;;-0.47;100.00;103387.63;5056147;28;20382;-86
2023/01/23 00:59:37;;;;;;;44.93;16.30;;;;;;;-0.42;100.00;103397.78;5054340;28;20033;-87
2023/01/23 01:02:02;;;;;;;42.13;17.83;;;;;;;-0.34;100.00;103405.91;5052982;28;20028;-87
2023/01/23 01:04:28;;;;;;;39.07;17.27;;;;;;;-0.33;100.00;103405.81;5051297;28;20104;-87
2023/01/23 01:06:53;;;;;;;47.37;17.23;;;;;;;-0.46;100.00;103384.84;5048721;28;20051;-87
2023/01/23 01:09:18;;;;;;;43.70;18.13;;;;;;;-0.39;100.00;103395.72;5052046;28;20100;-87
2023/01/23 01:11:44;;;;;;;43.13;16.92;;;;;;;-0.32;100.00;103411.91;5052693;28;20021;-87
2023/01/23 01:14:09;;;;;;;49.07;17.90;;;;;;;-0.37;100.00;103396.47;5051757;28;20045;-87
2023/01/23 01:16:35;;;;;;;44.07;16.90;;;;;;;-0.38;100.00;103396.59;5033952;28;20037;-87
2023/01/23 01:19:00;;;;;;;39.78;17.40;;;;;;;-0.37;100.00;103398.25;5050219;28;20112;-86
2023/01/23 01:21:26;;;;;;;46.30;16.60;;;;;;;-0.34;100.00;103404.13;5051279;28;20384;-86
2023/01/23 01:23:51;;;;;;;38.40;15.53;;;;;;;-0.29;100.00;103406.38;5050258;28;20025;-87
2023/01/23 01:26:17;;;;;;;45.10;17.60;;;;;;;-0.31;100.00;103395.13;5070420;28;20017;-87
2023/01/23 01:28:42;;;;;;;44.90;17.00;;;;;;;-0.28;100.00;103410.69;5058528;28;20111;-86
2023/01/23 01:31:11;;;;;;;50.17;17.00;;;;;;;-0.32;100.00;103406.63;5049954;28;20025;-87
2023/01/23 01:33:38;;;;;;;42.63;18.02;;;;;;;-0.27;100.00;103409.75;5069906;28;20036;-87
2023/01/23 01:36:10;;;;;;;47.90;17.52;;;;;;;-0.30;100.00;103415.25;5060659;28;20029;-87
2023/01/23 01:38:36;;;;;;;50.50;17.05;;;;;;;-0.28;100.00;103417.78;5051678;28;20063;-87
2023/01/23 01:41:01;;;;;;;41.53;15.87;;;;;;;-0.27;100.00;103415.00;5049742;28;20108;-87
2023/01/23 01:43:27;;;;;;;40.13;16.70;;;;;;;-0.26;100.00;103421.97;5049872;28;20032;-87
2023/01/23 01:46:13;;;;;;;39.17;16.48;;;;;;;-0.24;100.00;103430.59;5051231;28;20470;-87
2023/01/23 01:48:49;;;;;;;43.83;16.73;;;;;;;-0.23;100.00;103431.41;5035000;28;20032;-87
2023/01/23 01:51:31;;;;;;;49.40;16.67;;;;;;;-0.30;100.00;103420.53;5050733;28;20380;-87
2023/01/23 01:54:08;;;;;;;53.75;16.83;;;;;;;-0.35;100.00;103405.06;5044696;28;20041;-87
2023/01/23 01:56:40;;;;;;;40.17;16.33;;;;;;;-0.26;100.00;103421.97;5048939;28;20048;-87
2023/01/23 01:59:06;;;;;;;40.67;17.38;;;;;;;-0.38;100.00;103415.03;5048941;28;20040;-87
2023/01/23 02:01:32;;;;;;;44.25;16.90;;;;;;;-0.30;100.00;103409.97;5050126;28;20044;-88
2023/01/23 02:03:58;;;;;;;43.47;17.40;;;;;;;-0.27;100.00;103415.00;5051231;28;20020;-87
2023/01/23 02:06:25;;;;;;;37.65;16.05;;;;;;;-0.27;100.00;103409.75;5050530;28;20033;-87
2023/01/23 02:09:03;;;;;;;39.00;16.13;;;;;;;-0.34;100.00;103409.41;5050476;28;20632;-87
2023/01/23 02:11:29;;;;;;;40.57;15.80;;;;;;;-0.38;100.00;103396.59;5051349;28;20297;-87
2023/01/23 02:13:55;;;;;;;37.38;15.40;;;;;;;-0.29;100.00;103416.09;5048226;28;20037;-87
2023/01/23 02:16:28;;;;;;;36.22;15.77;;;;;;;-0.38;100.00;103404.50;5049542;28;20032;-87
2023/01/23 02:18:58;;;;;;;31.88;14.57;;;;;;;-0.42;100.00;103395.16;5045076;28;20114;-87
2023/01/23 02:21:24;;;;;;;43.70;16.97;;;;;;;-0.35;100.00;103420.03;5049637;28;20028;-87
2023/01/23 02:24:23;;;;;;;40.72;15.95;;;;;;;-0.33;100.00;103421.63;5049610;28;20529;-87
2023/01/23 02:26:48;;;;;;;42.53;16.38;;;;;;;-0.33;100.00;103412.84;5049872;28;20041;-87
2023/01/23 02:29:14;;;;;;;42.97;16.30;;;;;;;-0.29;100.00;103413.47;5050075;28;20028;-87
2023/01/23 02:31:41;;;;;;;42.38;16.98;;;;;;;-0.42;100.00;103401.25;5050544;28;20132;-87
2023/01/23 02:36:46;;;;;;;35.25;15.55;;;;;;;-0.34;100.00;103403.28;5085299;22;20464;-87
2023/01/23 02:39:13;;;;;;;40.17;16.20;;;;;;;-0.32;100.00;103417.16;5030072;28;20039;-87
2023/01/23 02:41:44;;;;;;;43.08;17.63;;;;;;;-0.36;100.00;103413.94;5024483;28;20030;-88
2023/01/23 02:44:27;;;;;;;42.63;17.73;;;;;;;-0.39;100.00;103406.28;5030829;28;20036;-87
2023/01/23 02:46:54;;;;;;;46.25;16.83;;;;;;;-0.32;100.00;103418.03;5010998;28;20030;-87
2023/01/23 02:49:20;;;;;;;45.58;17.38;;;;;;;-0.31;100.00;103414.44;5030044;28;20033;-86
2023/01/23 02:51:47;;;;;;;41.83;15.93;;;;;;;-0.31;100.00;103413.56;5032270;28;20026;-88
2023/01/23 02:54:15;;;;;;;39.70;16.27;;;;;;;-0.39;100.00;103402.81;5033380;28;21132;-88
2023/01/23 02:56:41;;;;;;;42.03;14.95;;;;;;;-0.29;100.00;103411.66;5046575;28;20052;-87
2023/01/23 03:01:51;;;;;;;45.13;16.23;;;;;;;-0.32;100.00;103406.63;5049763;28;20275;-88
2023/01/23 03:04:16;;;;;;;41.57;16.77;;;;;;;-0.29;100.00;103418.75;5053641;28;20700;-87
2023/01/23 03:06:42;;;;;;;44.10;15.80;;;;;;;-0.36;100.00;103405.19;5052514;28;20083;-87
2023/01/23 03:09:11;;;;;;;46.27;16.70;;;;;;;-0.32;100.00;103411.91;5031907;28;20109;-87
2023/01/23 03:11:38;;;;;;;41.88;17.70;;;;;;;-0.29;100.00;103418.75;5025259;28;20056;-87
2023/01/23 03:14:06;;;;;;;41.67;15.88;;;;;;;-0.28;100.00;103423.88;5012797;28;20067;-88
2023/01/23 03:16:34;;;;;;;43.83;16.50;;;;;;;-0.28;100.00;103418.59;5023703;28;20048;-87
2023/01/23 03:19:03;;;;;;;36.50;16.00;;;;;;;-0.28;100.00;103413.34;5029665;28;20021;-89
2023/01/23 03:21:33;;;;;;;39.60;16.67;;;;;;;-0.32;100.00;103411.91;5032676;28;20355;-89
2023/01/23 03:23:59;;;;;;;47.92;16.88;;;;;;;-0.32;100.00;103409.25;5035529;28;20121;-90
2023/01/23 03:26:24;;;;;;;43.17;18.02;;;;;;;-0.25;100.00;103422.78;5032492;28;20061;-89
2023/01/23 03:31:35;;;;;;;43.67;16.25;;;;;;;-0.25;100.00;103423.63;5024338;28;20117;-89
2023/01/23 03:34:00;;;;;;;46.07;18.60;;;;;;;-0.31;100.00;103413.56;5014425;28;20053;-89
2023/01/23 03:36:26;;;;;;;44.95;16.90;;;;;;;-0.29;100.00;103411.66;5025977;28;20059;-86
2023/01/23 03:41:37;;;;;;;40.20;15.70;;;;;;;-0.18;100.00;103423.97;5015027;28;20040;-87
2023/01/23 03:44:02;;;;;;;36.85;16.63;;;;;;;-0.18;100.00;103422.16;5033333;28;20025;-87
2023/01/23 03:46:27;;;;;;;44.23;16.63;;;;;;;-0.21;100.00;103430.34;5015636;28;20025;-87
2023/01/23 03:48:53;;;;;;;51.27;18.37;;;;;;;-0.17;100.00;103421.22;5034188;28;20032;-87
2023/01/23 03:51:18;;;;;;;51.33;18.60;;;;;;;-0.26;100.00;103411.41;5033143;28;20093;-87
2023/01/23 03:53:44;;;;;;;47.20;17.93;;;;;;;-0.23;100.00;103405.91;5034164;28;20539;-88
2023/01/23 03:56:10;;;;;;;42.53;16.77;;;;;;;-0.14;100.00;103425.41;5032270;28;20285;-87
2023/01/23 03:58:35;;;;;;;47.92;16.73;;;;;;;-0.14;100.00;103429.84;5016082;28;20026;-88
2023/01/23 04:01:04;;;;;;;42.13;17.97;;;;;;;-0.11;100.00;103434.88;5035151;28;20035;-88
2023/01/23 04:03:30;;;;;;;43.92;17.17;;;;;;;-0.16;100.00;103433.44;5035981;28;20033;-88
2023/01/23 04:05:58;;;;;;;45.50;17.77;;;;;;;-0.11;100.00;103437.50;5016434;28;20165;-87
2023/01/23 04:08:25;;;;;;;41.63;17.52;;;;;;;-0.18;100.00;103416.91;5033811;28;20060;-88
2023/01/23 04:10:50;;;;;;;48.33;18.88;;;;;;;-0.10;100.00;103426.00;5032423;28;20041;-87
2023/01/23 04:13:17;;;;;;;39.50;16.70;;;;;;;-0.10;100.00;103421.59;5032406;28;20025;-88
2023/01/23 04:15:43;;;;;;;45.25;17.92;;;;;;;-0.12;100.00;103412.09;5023576;28;20025;-87
2023/01/23 04:18:08;;;;;;;44.90;17.67;;;;;;;-0.17;100.00;103415.13;5025074;28;20435;-88
2023/01/23 04:20:33;;;;;;;47.80;16.97;;;;;;;-0.09;100.00;103422.41;5026798;28;20064;-88
2023/01/23 04:22:58;;;;;;;48.90;17.27;;;;;;;-0.18;100.00;103409.00;5032579;28;20515;-87
2023/01/23 04:25:24;;;;;;;49.27;17.17;;;;;;;-0.20;100.00;103413.56;5033112;28;20472;-88
2023/01/23 04:27:49;;;;;;;45.25;16.88;;;;;;;-0.12;100.00;103414.75;5032742;28;20091;-89
2023/01/23 04:30:15;;;;;;;45.10;16.43;;;;;;;-0.16;100.00;103411.53;5032612;28;20032;-88
2023/01/23 04:32:40;;;;;;;49.50;17.47;;;;;;;-0.09;100.00;103428.50;5026807;28;20033;-88
2023/01/23 04:35:06;;;;;;;43.10;17.07;;;;;;;-0.13;100.00;103431.53;5016840;28;20083;-88
2023/01/23 04:37:31;;;;;;;44.63;17.37;;;;;;;-0.22;100.00;103420.75;5047288;28;20307;-89
2023/01/23 04:39:56;;;;;;;50.23;17.67;;;;;;;-0.10;100.00;103437.41;5035667;28;20053;-88
2023/01/23 04:42:21;;;;;;;39.70;16.40;;;;;;;-0.24;100.00;103408.66;5028186;28;20032;-88
2023/01/23 04:44:47;;;;;;;47.00;17.27;;;;;;;-0.05;100.00;103437.84;5013851;28;20080;-88
2023/01/23 04:47:12;;;;;;;45.67;17.50;;;;;;;-0.09;100.00;103433.78;5038020;28;20115;-88
2023/01/23 04:49:39;;;;;;;41.80;17.27;;;;;;;-0.05;100.00;103439.66;5054052;28;20295;-89
2023/01/23 04:52:04;;;;;;;49.55;17.67;;;;;;;-0.06;100.00;103436.19;5049562;28;20040;-89
2023/01/23 04:54:29;;;;;;;50.87;17.80;;;;;;;-0.10;100.00;103436.56;5033598;28;20416;-88
2023/01/23 04:56:55;;;;;;;44.83;16.93;;;;;;;-0.08;100.00;103443.38;5008312;28;20056;-87
2023/01/23 04:59:21;;;;;;;49.53;17.83;;;;;;;-0.05;100.00;103444.94;5047408;28;20055;-88
2023/01/23 05:01:47;;;;;;;45.72;16.70;;;;;;;-0.04;100.00;103452.72;5051330;28;20022;-87
2023/01/23 05:04:12;;;;;;;41.80;16.37;;;;;;;-0.03;100.00;103450.94;5034781;28;20362;-88
2023/01/23 05:06:38;;;;;;;45.63;17.52;;;;;;;-0.07;100.00;103444.22;5051450;28;20064;-88
2023/01/23 05:09:04;;;;;;;49.10;18.20;;;;;;;-0.02;100.00;103455.25;5039158;28;20076;-88
2023/01/23 05:11:29;;;;;;;51.25;18.58;;;;;;;-0.04;100.00;103449.25;5034228;28;20037;-88
2023/01/23 05:13:55;;;;;;;45.57;17.37;;;;;;;-0.01;100.00;103456.94;5032170;28;20044;-87
2023/01/23 05:16:20;;;;;;;50.72;17.55;;;;;;;-0.03;100.00;103446.47;5035900;28;20057;-88
2023/01/23 05:18:46;;;;;;;51.70;18.13;;;;;;;0.01;100.00;103454.97;5031696;28;20030;-89
2023/01/23 05:21:11;;;;;;;47.60;18.33;;;;;;;0.02;100.00;103455.84;5038195;28;20033;-88
2023/01/23 05:23:36;;;;;;;46.80;17.93;;;;;;;0.01;100.00;103449.69;5038779;28;20034;-88
2023/01/23 05:26:02;;;;;;;54.70;18.45;;;;;;;0.02;100.00;103451.38;5022853;28;20025;-88
2023/01/23 05:28:27;;;;;;;50.03;17.83;;;;;;;-0.03;100.00;103448.28;5039337;28;20037;-87
2023/01/23 05:30:52;;;;;;;51.23;16.57;;;;;;;-0.03;100.00;103454.38;5039756;28;20029;-86
2023/01/23 05:33:18;;;;;;;50.60;18.50;;;;;;;-0.08;100.00;103447.81;5032135;28;20042;-87
2023/01/23 05:35:43;;;;;;;52.27;17.97;;;;;;;0.04;100.00;103464.47;5028560;28;20033;-86
2023/01/23 05:38:10;;;;;;;48.77;18.33;;;;;;;0.06;100.00;103463.38;5042039;28;20056;-85
2023/01/23 05:40:36;;;;;;;52.42;18.15;;;;;;;0.07;100.00;103465.03;5041781;28;20055;-87
2023/01/23 05:43:01;;;;;;;47.77;17.47;;;;;;;0.05;100.00;103455.59;5045052;28;20107;-85
2023/01/23 05:45:26;;;;;;;49.23;17.60;;;;;;;0.02;100.00;103451.38;5049519;28;20032;-86
2023/01/23 05:47:51;;;;;;;48.17;16.35;;;;;;;0.07;100.00;103459.78;5041899;28;20025;-87
2023/01/23 05:50:18;;;;;;;46.60;17.43;;;;;;;0.10;100.00;103479.78;5043210;28;20500;-86
2023/01/23 05:52:45;;;;;;;46.80;18.10;;;;;;;0.10;100.00;103480.63;5042954;28;20033;-86
2023/01/23 05:55:10;;;;;;;41.50;16.97;;;;;;;0.02;100.00;103463.75;5027348;28;20319;-87
2023/01/23 05:57:36;;;;;;;45.50;18.23;;;;;;;0.11;100.00;103484.09;5022347;28;20032;-87
2023/01/23 06:00:04;;;;;;;50.27;17.80;;;;;;;0.09;100.00;103486.84;5030773;28;20036;-87
2023/01/23 06:02:29;;;;;;;41.05;17.58;;;;;;;0.10;100.00;103474.50;5051651;28;20111;-87
2023/01/23 06:04:54;;;;;;;45.10;18.00;;;;;;;0.13;100.00;103477.75;5016319;28;20029;-88
2023/01/23 06:07:20;;;;;;;50.70;17.43;;;;;;;0.04;100.00;103467.91;5026779;28;20026;-87
2023/01/23 06:09:45;;;;;;;44.53;16.97;;;;;;;0.15;100.00;103496.06;5049867;28;20013;-86
2023/01/23 06:12:12;;;;;;;43.33;17.38;;;;;;;0.12;100.00;103489.25;5032840;28;20042;-87
2023/01/23 06:14:37;;;;;;;45.92;17.30;;;;;;;0.09;100.00;103478.13;5013006;28;20109;-87
2023/01/23 06:17:03;;;;;;;46.73;16.80;;;;;;;0.12;100.00;103483.97;5031121;28;20032;-87
2023/01/23 06:19:28;;;;;;;48.50;17.83;;;;;;;0.16;100.00;103499.56;5030800;28;20025;-87
2023/01/23 06:21:53;;;;;;;51.63;18.27;;;;;;;0.02;100.00;103472.47;5031210;28;20423;-87
2023/01/23 06:24:18;;;;;;;41.90;16.47;;;;;;;0.09;100.00;103486.03;5026938;28;20484;-87
2023/01/23 06:26:45;;;;;;;44.10;16.80;;;;;;;0.17;100.00;103496.78;5031271;28;20418;-87
2023/01/23 06:29:10;;;;;;;45.85;17.33;;;;;;;0.14;100.00;103497.88;5012889;28;20086;-87
2023/01/23 06:31:36;;;;;;;43.23;17.37;;;;;;;0.17;100.00;103496.78;5029140;28;20029;-87
2023/01/23 06:34:01;;;;;;;46.37;17.33;;;;;;;0.14;100.00;103492.63;5015038;28;20135;-87
2023/01/23 06:36:26;;;;;;;47.97;17.37;;;;;;;0.18;100.00;103487.91;5024438;28;20072;-87
2023/01/23 06:38:52;;;;;;;43.47;16.70;;;;;;;0.15;100.00;103490.78;5030712;28;20018;-87
2023/01/23 06:41:18;;;;;;;44.20;17.13;;;;;;;0.21;100.00;103507.94;5030389;28;20041;-87
2023/01/23 06:43:43;;;;;;;44.93;18.27;;;;;;;0.20;100.00;103498.34;5017701;28;20030;-87
2023/01/23 06:46:09;;;;;;;48.17;17.02;;;;;;;0.22;100.00;103499.06;5017490;28;20101;-87
2023/01/23 06:48:35;;;;;;;40.17;17.07;;;;;;;0.22;100.00;103501.69;5030098;28;20080;-87
2023/01/23 06:51:02;;;;;;;47.72;18.02;;;;;;;0.22;100.00;103499.06;5029077;28;20069;-87
2023/01/23 06:53:28;;;;;;;42.40;17.20;;;;;;;0.18;100.00;103495.00;5029448;28;20059;-88
2023/01/23 06:55:58;;;;;;;45.93;17.10;;;;;;;0.11;100.00;103486.72;5031830;28;20114;-87
2023/01/23 06:58:24;;;;;;;44.58;17.77;;;;;;;0.21;100.00;103507.94;5033527;28;20088;-87
2023/01/23 07:00:49;;;;;;;42.47;16.97;;;;;;;0.19;100.00;103509.84;5033731;28;20025;-87
2023/01/23 07:03:15;;;;;;;42.90;17.50;;;;;;;0.19;100.00;103515.13;5026115;28;20103;-87
2023/01/23 07:05:42;;;;;;;31.40;12.57;;;;;;;0.13;100.00;103504.13;5014805;28;20030;-87
2023/01/23 07:08:08;;;;;;;43.88;16.63;;;;;;;0.18;100.00;103524.03;4996862;28;20037;-87
2023/01/23 07:10:36;;;;;;;47.38;17.83;;;;;;;0.16;100.00;103520.66;5014244;28;20030;-87
2023/01/23 07:13:05;;;;;;;40.28;16.83;;;;;;;0.21;100.00;103523.75;5029063;28;20068;-84
2023/01/23 07:15:32;;;;;;;38.17;15.63;;;;;;;0.24;100.00;103528.78;5028569;28;20030;-85
2023/01/23 07:17:58;;;;;;;39.55;16.23;;;;;;;0.21;100.00;103521.13;5014424;28;20025;-85
2023/01/23 07:20:26;;;;;;;36.80;16.55;;;;;;;0.21;100.00;103523.75;5033127;28;20049;-86
2023/01/23 07:22:56;;;;;;;45.00;16.77;;;;;;;0.25;100.00;103527.81;5017416;28;20060;-86
2023/01/23 07:25:22;;;;;;;42.17;17.10;;;;;;;0.25;100.00;103533.97;5033524;28;20036;-87
2023/01/23 07:27:48;;;;;;;42.13;17.13;;;;;;;0.27;100.00;103532.00;5033014;28;20033;-86
2023/01/23 07:30:14;;;;;;;52.40;18.47;;;;;;;0.26;100.00;103526.88;5033154;28;20662;-87
2023/01/23 07:32:40;;;;;;;45.63;17.90;;;;;;;0.26;100.00;103532.16;5029865;28;20028;-86
2023/01/23 07:35:06;;;;;;;42.77;16.93;;;;;;;0.26;100.00;103542.69;5047017;28;20034;-86
2023/01/23 07:37:31;;;;;;;45.83;18.30;;;;;;;0.21;100.00;103529.03;5033359;28;20026;-86
2023/01/23 07:39:57;;;;;;;45.03;17.27;;;;;;;0.20;100.00;103535.25;5035472;28;20013;-84
2023/01/23 07:42:22;;;;;;;47.97;18.50;;;;;;;0.28;100.00;103546.88;5045346;28;20287;-87
2023/01/23 07:44:48;;;;;;;41.40;16.53;;;;;;;0.25;100.00;103543.66;5040853;28;20071;-85
2023/01/23 07:47:13;;;;;;;42.53;17.60;;;;;;;0.23;100.00;103540.28;5032958;28;20037;-86
2023/01/23 07:49:38;;;;;;;43.03;17.70;;;;;;;0.23;100.00;103541.16;5033382;28;20026;-86
2023/01/23 07:52:04;;;;;;;44.07;16.47;;;;;;;0.30;100.00;103557.31;5033075;28;20378;-86
2023/01/23 07:54:29;;;;;;;42.43;16.80;;;;;;;0.35;100.00;103563.09;5017114;28;20030;-86
2023/01/23 07:56:54;;;;;;;44.30;17.43;;;;;;;0.33;100.00;103561.50;5023042;28;20480;-86
2023/01/23 07:59:20;;;;;;;42.23;17.30;;;;;;;0.34;100.00;103560.53;5031405;28;20079;-85
2023/01/23 08:01:47;;;;;;;43.45;17.27;;;;;;;0.36;100.00;103564.75;5043344;28;20049;-86
2023/01/23 08:04:13;;;;;;;39.95;16.42;;;;;;;0.35;100.00;103568.34;5031827;28;20397;-86
2023/01/23 08:06:38;;;;;;;46.57;17.40;;;;;;;0.39;100.00;103569.75;5038704;28;20029;-86
2023/01/23 08:09:03;;;;;;;40.97;17.37;;;;;;;0.35;100.00;103555.16;5032517;28;20018;-86
2023/01/23 08:11:28;;;;;;;41.17;16.57;;;;;;;0.46;100.00;103572.75;5040411;28;20097;-86
2023/01/23 08:13:54;;;;;;;47.20;16.97;;;;;;;0.42;100.00;103561.63;5031715;28;20358;-86
2023/01/23 08:16:19;;;;;;;46.33;17.63;;;;;;;0.49;100.00;103574.31;5033249;28;20602;-86
2023/01/23 08:18:45;;;;;;;42.22;16.55;;;;;;;0.45;100.00;103558.72;5015885;28;20045;-86
2023/01/23 08:21:10;;;;;;;38.60;16.30;;;;;;;0.51;100.00;103577.69;5012910;28;20084;-86
2023/01/23 08:23:35;;;;;;;37.40;16.63;;;;;;;0.50;100.00;103563.63;5015064;28;20125;-85
2023/01/23 08:26:05;;;;;;;45.95;18.73;;;;;;;0.58;100.00;103573.56;5038295;28;20088;-88
2023/01/23 08:28:30;;;;;;;47.67;17.70;;;;;;;0.59;100.00;103576.09;5035846;28;20079;-85
2023/01/23 08:31:00;;;;;;;47.10;17.52;;;;;;;0.63;100.00;103576.69;5015205;28;20140;-86
2023/01/23 08:33:25;;;;;;;37.35;17.33;;;;;;;0.59;100.00;103577.88;5026977;28;20022;-85
2023/01/23 08:35:53;;;;;;;39.93;17.67;;;;;;;0.66;100.00;103587.00;5010522;28;20030;-84
2023/01/23 08:38:19;;;;;;;41.17;16.88;;;;;;;0.69;100.00;103591.19;5022704;28;20025;-86
2023/01/23 08:40:47;;;;;;;38.17;16.77;;;;;;;0.70;100.00;103591.09;5008621;28;20112;-90
2023/01/23 08:43:13;;;;;;;40.40;17.43;;;;;;;0.69;100.00;103586.75;5027872;28;20322;-88
2023/01/23 08:45:50;;;;;;;40.58;17.05;;;;;;;0.68;100.00;103585.09;5032966;28;20051;-89
2023/01/23 08:48:17;;;;;;;46.70;17.88;;;;;;;0.74;100.00;103596.94;5025818;28;20091;-88
2023/01/23 08:50:43;;;;;;;43.08;18.55;;;;;;;0.77;100.00;103595.84;5014523;28;20029;-87
2023/01/23 08:53:10;;;;;;;40.85;17.45;;;;;;;0.78;100.00;103585.19;5028633;28;20543;-89
2023/01/23 08:55:37;;;;;;;42.53;16.17;;;;;;;0.79;100.00;103605.34;5015246;28;20072;-89
2023/01/23 08:58:04;;;;;;;45.78;17.70;;;;;;;0.81;100.00;103602.56;5016960;28;20061;-89
2023/01/23 09:00:29;;;;;;;38.45;16.92;;;;;;;0.91;100.00;103606.16;5038119;28;20025;-90
2023/01/23 09:02:55;;;;;;;35.40;15.97;;;;;;;0.91;100.00;103606.16;5034081;28;20025;-90
2023/01/23 09:05:20;;;;;;;38.35;17.60;;;;;;;0.94;100.00;103605.88;5046879;28;20115;-87
2023/01/23 09:07:46;;;;;;;38.83;16.77;;;;;;;1.03;100.00;103599.00;5032702;28;20026;-87
2023/01/23 09:10:15;;;;;;;25.52;12.35;;;;;;;0.99;100.00;103601.06;5038417;28;20081;-88
2023/01/23 09:12:41;;;;;;;41.60;16.67;;;;;;;0.96;100.00;103585.47;5044020;28;20116;-87
2023/01/23 09:15:07;;;;;;;35.60;15.15;;;;;;;1.13;100.00;103610.50;5032660;28;20436;-89
2023/01/23 09:17:33;;;;;;;35.78;16.40;;;;;;;1.22;100.00;103611.56;5012222;28;20045;-88
2023/01/23 09:19:59;;;;;;;35.90;16.60;;;;;;;1.23;100.00;103600.03;5019012;28;20021;-88
2023/01/23 09:22:25;;;;;;;39.38;16.83;;;;;;;1.32;100.00;103609.00;5026729;28;20044;-88
2023/01/23 09:24:50;;;;;;;34.53;15.50;;;;;;;1.41;100.00;103605.56;5021203;28;20436;-88
2023/01/23 09:27:16;;;;;;;36.00;16.73;;;;;;;1.42;100.00;103595.84;5001926;28;20041;-88
2023/01/23 09:29:41;;;;;;;33.50;15.13;;;;;;;1.52;100.00;103596.75;5023390;28;20026;-87
2023/01/23 09:32:06;;;;;;;30.13;15.43;;;;;;;1.62;100.00;103602.09;5025939;28;20446;-89
2023/01/23 09:34:31;;;;;;;37.17;17.57;;;;;;;1.66;100.00;103585.84;5030946;28;20034;-88
2023/01/23 09:36:57;;;;;;;34.80;15.70;;;;;;;1.65;100.00;103593.91;5028541;28;20013;-89
2023/01/23 09:42:03;;;;;;;32.10;14.00;;;;;;;1.69;100.00;103590.03;6100164;22;20019;-88
2023/01/23 09:44:42;;;;;;;31.73;15.43;;;;;;;1.81;100.00;103599.56;5030721;28;20041;-88
2023/01/23 09:47:18;;;;;;;36.42;16.08;;;;;;;1.86;100.00;103596.53;5030955;28;20025;-88
2023/01/23 09:49:52;;;;;;;29.33;14.57;;;;;;;1.78;100.00;103589.25;5031118;28;20033;-87
2023/01/23 09:52:38;;;;;;;30.58;13.77;;;;;;;1.92;100.00;103600.44;5029914;28;20041;-88
2023/01/23 09:55:16;;;;;;;31.13;15.17;;;;;;;1.89;100.00;103614.78;5031635;28;20428;-88
2023/01/23 09:57:48;;;;;;;29.13;14.47;;;;;;;1.70;100.00;103590.88;5026162;28;20292;-87
2023/01/23 10:00:21;;;;;;;30.67;13.27;;;;;;;1.87;100.00;103632.56;5011665;28;20018;-88
2023/01/23 10:02:48;;;;;;;30.05;15.07;;;;;;;1.83;100.00;103625.88;5020996;28;20037;-88
2023/01/23 10:05:15;;;;;;;30.52;15.15;;;;;;;1.75;100.00;103609.84;5020887;28;20025;-88
2023/01/23 10:07:52;;;;;;;31.60;14.85;;;;;;;1.83;100.00;103617.94;5029729;28;20052;-87
2023/01/23 10:10:23;;;;;;;29.40;13.73;;;;;;;1.90;100.00;103619.09;5013130;28;20053;-87
2023/01/23 10:12:51;;;;;;;35.22;14.68;;;;;;;1.91;100.00;103620.78;5021213;28;20068;-87
2023/01/23 10:15:44;;;;;;;27.58;12.55;;;;;;;1.91;100.00;103610.19;5026198;28;20038;-88
2023/01/23 10:18:40;;;;;;;29.25;14.80;;;;;;;1.95;100.00;103622.19;5026433;28;20060;-88
2023/01/23 10:21:09;;;;;;;34.45;14.27;;;;;;;1.96;100.00;103618.59;5012902;28;20240;-88
2023/01/23 10:23:58;;;;;;;29.83;14.13;;;;;;;1.95;100.00;103619.56;4997770;28;20633;-89
2023/01/23 10:26:30;;;;;;;28.00;14.13;;;;;;;2.02;100.00;103622.50;5019615;28;20116;-87
2023/01/23 10:29:02;;;;;;;27.60;13.82;;;;;;;1.91;100.00;103623.41;5010827;28;20392;-86
2023/01/23 10:31:41;;;;;;;29.95;13.82;;;;;;;1.99;100.00;103637.81;5022520;28;20033;-87
2023/01/23 10:34:17;;;;;;;29.27;13.65;;;;;;;1.99;100.00;103627.22;5030548;28;20010;-87
2023/01/23 10:37:02;;;;;;;30.53;14.47;;;;;;;1.98;100.00;103628.19;5019548;28;20077;-88
2023/01/23 10:39:43;;;;;;;20.63;10.37;;;;;;;1.96;100.00;103610.66;5007648;28;20292;-87
2023/01/23 10:42:11;;;;;;;35.60;15.00;;;;;;;2.06;100.00;103625.72;5032694;28;20057;-88
2023/01/23 10:44:37;;;;;;;30.20;14.30;;;;;;;1.99;100.00;103614.00;5027696;28;20028;-88
2023/01/23 10:47:11;;;;;;;31.00;14.90;;;;;;;2.06;100.00;103617.78;5023939;28;20101;-87
2023/01/23 10:49:43;;;;;;;29.73;14.50;;;;;;;2.13;100.00;103618.94;5021007;28;20033;-88
2023/01/23 10:52:46;;;;;;;30.15;14.05;;;;;;;2.14;100.00;103617.97;5029585;28;20112;-88
2023/01/23 10:55:32;;;;;;;26.55;13.45;;;;;;;2.20;100.00;103622.72;5031793;28;20457;-90
2023/01/23 10:58:02;;;;;;;29.10;14.03;;;;;;;2.13;100.00;103603.06;5030990;28;20045;-91
2023/01/23 11:00:43;;;;;;;29.08;13.43;;;;;;;2.17;100.00;103606.28;5030899;28;20010;-90
2023/01/23 11:03:20;;;;;;;25.90;12.50;;;;;;;2.25;100.00;103624.97;5028060;28;20207;-91
2023/01/23 11:05:55;;;;;;;29.52;13.90;;;;;;;2.23;100.00;103619.81;5050590;28;20066;-91
2023/01/23 11:08:37;;;;;;;25.95;12.40;;;;;;;2.27;100.00;103618.56;5034485;28;20134;-90
2023/01/23 11:11:14;;;;;;;27.47;13.77;;;;;;;2.34;100.00;103613.59;5051549;28;20045;-91
2023/01/23 11:13:41;;;;;;;24.20;12.13;;;;;;;2.34;100.00;103610.94;5042846;28;20297;-91
2023/01/23 11:16:14;;;;;;;25.60;11.48;;;;;;;2.42;100.00;103613.75;5025696;28;20034;-91
2023/01/23 11:18:42;;;;;;;27.30;13.35;;;;;;;2.52;100.00;103611.16;5008045;28;20455;-89
2023/01/23 11:21:22;;;;;;;26.10;11.48;;;;;;;2.55;100.00;103597.63;5011779;28;20034;-91